Time;durP1;ratioP1;P1;durP2;ratioP2;P2;SDS_P1;SDS_P2;PMS_P1;PMS_P2;Temp;Humidity;BMP_temperature;BMP_pressure;BME280_temperature;BME280_humidity;BME280_pressure;Samples;Min_cycle;Max_cycle;Signal;HPM_P1;HPM_P2
2022/01/18 00:01:35;;;;;;;46.50;5.95;;;;;;;3.66;49.65;102518.75;5093306;28;20063;-68
2022/01/18 00:04:01;;;;;;;42.38;5.88;;;;;;;3.72;49.49;102524.59;5097931;28;20044;-67
2022/01/18 00:06:28;;;;;;;50.08;5.70;;;;;;;3.71;49.38;102527.34;5092626;28;20472;-67
2022/01/18 00:08:54;;;;;;;48.72;6.22;;;;;;;3.37;50.13;102529.72;5094179;28;20130;-67
2022/01/18 00:11:23;;;;;;;31.55;5.90;;;;;;;3.56;50.22;102528.91;5096994;28;20492;-68
2022/01/18 00:13:58;;;;;;;55.65;6.78;;;;;;;3.69;49.87;102535.38;5096449;28;20048;-68
2022/01/18 00:18:52;;;;;;;42.90;5.65;;;;;;;3.63;49.65;102535.66;5097154;28;20565;-68
2022/01/18 00:21:31;;;;;;;45.15;5.57;;;;;;;3.60;49.91;102538.44;5097797;28;20067;-68
2022/01/18 00:23:58;;;;;;;43.17;5.95;;;;;;;3.52;50.18;102548.56;5097393;28;20056;-68
2022/01/18 00:26:29;;;;;;;50.08;6.63;;;;;;;3.57;50.23;102543.88;5096534;28;20043;-68
2022/01/18 00:29:03;;;;;;;40.63;6.70;;;;;;;3.66;49.94;102555.91;5096626;28;20497;-68
2022/01/18 00:34:11;;;;;;;49.85;7.75;;;;;;;3.59;50.32;102563.28;5115687;28;20547;-68
2022/01/18 00:36:53;;;;;;;50.97;7.32;;;;;;;3.44;50.74;102566.59;5114842;28;20055;-68
2022/01/18 00:39:20;;;;;;;52.63;5.30;;;;;;;3.36;50.79;102570.47;5117190;28;20090;-68
2022/01/18 00:41:46;;;;;;;47.15;6.25;;;;;;;3.58;50.45;102565.03;5116259;28;20067;-68
2022/01/18 00:44:14;;;;;;;32.63;5.90;;;;;;;3.59;50.70;102560.63;5116457;28;20070;-68
2022/01/18 00:46:41;;;;;;;46.17;6.53;;;;;;;3.46;50.89;102560.31;5117647;28;20051;-68
2022/01/18 00:49:10;;;;;;;52.10;7.03;;;;;;;3.31;51.10;102567.16;5119267;28;20127;-68
2022/01/18 00:51:39;;;;;;;42.88;6.47;;;;;;;3.41;50.88;102572.03;5117220;28;20130;-68
2022/01/18 00:54:07;;;;;;;44.63;5.68;;;;;;;3.42;51.34;102572.00;5115714;28;20146;-68
2022/01/18 00:56:39;;;;;;;50.10;5.80;;;;;;;3.50;51.27;102572.50;5117403;28;20127;-68
2022/01/18 00:59:06;;;;;;;54.33;8.13;;;;;;;3.56;51.03;102572.22;5116678;28;20103;-68
2022/01/18 01:01:34;;;;;;;54.33;6.25;;;;;;;3.29;51.20;102579.63;5115040;28;20066;-68
2022/01/18 01:04:03;;;;;;;50.20;7.00;;;;;;;3.25;51.85;102575.38;5096662;28;20470;-68
2022/01/18 01:06:31;;;;;;;41.38;6.72;;;;;;;3.57;50.65;102579.25;5117059;28;20050;-68
2022/01/18 01:08:58;;;;;;;50.42;6.53;;;;;;;3.51;51.22;102586.63;5117012;28;20059;-69
2022/01/18 01:11:25;;;;;;;42.22;6.30;;;;;;;3.36;51.50;102578.41;5118565;28;20051;-69
2022/01/18 01:13:54;;;;;;;54.88;6.90;;;;;;;3.41;50.83;102577.34;5117662;28;20515;-67
2022/01/18 01:33:15;;;;;;;60.90;6.43;;;;;;;3.55;51.03;102606.78;5106355;28;20044;-68
2022/01/18 01:43:49;;;;;;;60.55;7.75;;;;;;;3.31;51.61;102595.50;5115827;28;20112;-68
2022/01/18 01:46:18;;;;;;;51.38;7.25;;;;;;;3.29;51.67;102599.97;5114101;28;20092;-69
2022/01/18 01:48:51;;;;;;;54.33;7.60;;;;;;;3.43;50.76;102596.72;5114676;28;20047;-68
2022/01/18 01:51:17;;;;;;;41.38;6.53;;;;;;;3.49;51.01;102605.28;5114522;28;20070;-68
2022/01/18 01:53:44;;;;;;;57.80;7.75;;;;;;;3.49;50.68;102597.31;5110419;28;20074;-67
2022/01/18 01:56:10;;;;;;;63.88;8.10;;;;;;;3.44;51.02;102603.75;5113101;28;20139;-68
2022/01/18 01:58:36;;;;;;;63.40;7.53;;;;;;;3.50;50.69;102609.66;5116394;28;20177;-68
2022/01/18 02:01:05;;;;;;;47.30;7.10;;;;;;;3.52;50.60;102601.63;5115332;28;20063;-69
2022/01/18 02:03:33;;;;;;;53.72;6.65;;;;;;;3.41;51.00;102601.22;5099170;28;20036;-68
2022/01/18 02:09:40;;;;;;;46.88;6.30;;;;;;;3.36;50.79;102589.03;5113790;28;20123;-68
2022/01/18 02:12:09;;;;;;;41.78;6.75;;;;;;;3.36;50.91;102585.53;5117092;28;20051;-68
2022/01/18 02:14:35;;;;;;;45.20;6.07;;;;;;;3.30;51.72;102585.78;5116867;28;20486;-68
2022/01/18 02:22:32;;;;;;;47.55;6.90;;;;;;;3.31;50.98;102588.38;5103488;28;20040;-68
2022/01/18 02:24:59;;;;;;;51.40;7.55;;;;;;;3.27;50.97;102586.78;5116343;28;20483;-68
2022/01/18 02:27:26;;;;;;;55.15;7.07;;;;;;;3.26;51.24;102590.34;5117206;28;20135;-71
2022/01/18 02:29:52;;;;;;;50.78;6.72;;;;;;;3.19;51.22;102596.00;5117152;28;20066;-68
2022/01/18 02:32:19;;;;;;;59.00;8.07;;;;;;;3.24;51.29;102599.31;5115099;28;20069;-68
2022/01/18 02:34:45;;;;;;;62.33;7.15;;;;;;;3.20;51.19;102600.38;5116582;28;20536;-68
2022/01/18 02:37:14;;;;;;;49.15;6.63;;;;;;;3.20;51.25;102587.97;5115988;28;20475;-68
2022/01/18 02:39:42;;;;;;;47.33;7.68;;;;;;;3.08;51.51;102601.78;5116719;28;20067;-68
2022/01/18 02:42:11;;;;;;;42.05;6.60;;;;;;;3.10;51.16;102602.56;5116816;28;20045;-68
2022/01/18 02:44:37;;;;;;;51.53;7.00;;;;;;;3.21;51.26;102597.66;5115170;28;20134;-68
2022/01/18 02:47:05;;;;;;;52.72;7.20;;;;;;;3.20;51.16;102600.38;5113317;28;20040;-68
2022/01/18 02:49:32;;;;;;;49.83;6.82;;;;;;;3.02;52.00;102596.72;5116948;28;20050;-68
2022/01/18 02:52:00;;;;;;;42.80;5.75;;;;;;;3.17;51.60;102600.50;5117389;28;20103;-69
2022/01/18 02:54:27;;;;;;;55.67;8.25;;;;;;;2.81;52.38;102594.03;5117427;28;20454;-68
2022/01/18 02:56:59;;;;;;;54.90;7.65;;;;;;;3.08;51.45;102591.16;5117081;28;20118;-68
2022/01/18 02:59:35;;;;;;;50.42;6.93;;;;;;;3.17;51.60;102590.78;5116770;28;20040;-69
2022/01/18 03:05:00;;;;;;;46.72;8.20;;;;;;;3.07;51.74;102595.63;5115119;28;20122;-68
2022/01/18 03:07:26;;;;;;;56.03;7.07;;;;;;;3.13;51.42;102605.06;5116690;28;20044;-68
2022/01/18 03:09:53;;;;;;;58.03;6.97;;;;;;;3.19;51.25;102602.16;5117032;28;20127;-68
2022/01/18 03:12:19;;;;;;;58.78;7.45;;;;;;;3.05;51.66;102615.16;5117154;28;20065;-68
2022/01/18 03:14:46;;;;;;;52.42;7.60;;;;;;;3.05;51.68;102609.84;5115374;28;20146;-68
2022/01/18 03:17:12;;;;;;;44.25;6.78;;;;;;;2.95;52.11;102614.69;5116546;28;20487;-68
2022/01/18 03:19:39;;;;;;;40.45;6.43;;;;;;;3.04;51.60;102619.59;5115432;28;20130;-69
2022/01/18 03:22:06;;;;;;;53.72;7.45;;;;;;;3.07;51.84;102626.56;5114693;28;20067;-70
2022/01/18 03:24:59;;;;;;;50.63;6.18;;;;;;;3.00;52.19;102620.66;5115411;28;20148;-69
2022/01/18 03:30:11;;;;;;;47.90;7.03;;;;;;;2.99;51.66;102631.31;5114056;28;20035;-69
2022/01/18 03:32:38;;;;;;;65.90;8.80;;;;;;;2.99;51.88;102634.81;5113814;28;20112;-68
2022/01/18 03:35:07;;;;;;;45.95;8.00;;;;;;;3.04;51.68;102626.69;5115822;28;20138;-68
2022/01/18 03:37:34;;;;;;;44.55;6.53;;;;;;;3.08;51.23;102636.25;5114078;28;20054;-68
2022/01/18 03:40:00;;;;;;;50.22;6.43;;;;;;;3.01;51.98;102642.72;5096118;28;20067;-68
2022/01/18 03:42:38;;;;;;;65.22;7.38;;;;;;;2.93;52.09;102629.81;5114510;28;20506;-68
2022/01/18 03:45:07;;;;;;;61.47;7.63;;;;;;;2.97;51.70;102649.09;5113933;28;20490;-68
2022/01/18 03:47:34;;;;;;;60.17;6.70;;;;;;;3.04;51.79;102654.06;5113695;28;20118;-68
2022/01/18 03:50:01;;;;;;;53.08;7.47;;;;;;;3.02;52.13;102650.63;5114016;28;20099;-68
2022/01/18 03:52:28;;;;;;;65.05;8.32;;;;;;;3.00;52.18;102641.88;5114658;28;20413;-68
2022/01/18 03:54:55;;;;;;;60.13;7.43;;;;;;;3.07;51.69;102639.84;5113552;28;20100;-68
2022/01/18 03:57:22;;;;;;;43.67;7.15;;;;;;;3.02;51.67;102647.97;5113123;28;20055;-69
2022/01/18 03:59:49;;;;;;;49.42;5.93;;;;;;;3.04;51.97;102650.56;5112874;28;21616;-68
2022/01/18 04:02:16;;;;;;;45.60;7.05;;;;;;;3.04;51.99;102647.91;5112693;28;20437;-68
2022/01/18 04:04:43;;;;;;;50.55;7.63;;;;;;;3.04;51.84;102653.22;5112369;28;20054;-68
2022/01/18 04:07:09;;;;;;;53.55;6.65;;;;;;;3.01;52.31;102656.00;5114597;28;20054;-68
2022/01/18 04:09:36;;;;;;;60.55;6.68;;;;;;;3.01;51.84;102658.66;5113364;28;20047;-68
2022/01/18 04:12:04;;;;;;;53.42;8.00;;;;;;;2.86;52.47;102646.88;5114090;28;20047;-68
2022/01/18 04:14:30;;;;;;;46.90;6.38;;;;;;;2.92;52.13;102651.91;5112098;28;20039;-69
2022/01/18 04:17:17;;;;;;;54.95;7.07;;;;;;;2.88;52.63;102663.56;5113235;28;20135;-69
2022/01/18 04:28:13;;;;;;;59.78;7.80;;;;;;;3.10;52.47;102669.75;5113477;28;20134;-69
2022/01/18 04:30:35;;;;;;;51.78;6.90;;;;;;;3.07;52.25;102669.00;5112358;28;20059;-69
2022/01/18 04:33:01;;;;;;;47.65;5.65;;;;;;;3.14;52.33;102673.13;5114127;28;20113;-69
2022/01/18 04:35:28;;;;;;;68.72;6.40;;;;;;;3.15;52.38;102685.44;5114570;28;20047;-69
2022/01/18 04:37:55;;;;;;;43.65;5.70;;;;;;;3.24;52.28;102679.78;5114412;28;20063;-69
2022/01/18 04:40:27;;;;;;;52.50;7.30;;;;;;;3.26;52.62;102675.25;5118026;27;20130;-69
2022/01/18 04:51:02;;;;;;;48.83;6.93;;;;;;;3.46;51.42;102663.78;5117471;28;20039;-68
2022/01/18 04:53:31;;;;;;;46.38;6.63;;;;;;;3.46;52.11;102674.41;5117994;28;20070;-68
2022/01/18 04:56:03;;;;;;;48.60;6.50;;;;;;;3.45;52.04;102675.34;5118004;28;20460;-69
2022/01/18 04:58:29;;;;;;;48.55;7.85;;;;;;;3.44;52.04;102675.38;5099910;28;20476;-68
2022/01/18 05:00:59;;;;;;;48.20;7.22;;;;;;;3.47;52.06;102680.56;5111826;28;20067;-69
2022/01/18 05:03:28;;;;;;;53.28;7.03;;;;;;;3.53;52.15;102685.63;5116614;28;20380;-69
2022/01/18 05:05:58;;;;;;;47.45;6.38;;;;;;;3.60;51.60;102677.31;5115627;28;20040;-68
2022/01/18 05:08:26;;;;;;;51.25;7.68;;;;;;;3.60;51.60;102685.28;5118712;28;20035;-68
2022/01/18 05:10:56;;;;;;;39.38;5.20;;;;;;;3.69;51.91;102689.34;5117819;28;20539;-68
2022/01/18 05:13:51;;;;;;;48.13;6.00;;;;;;;3.64;51.95;102691.31;5118743;28;20499;-68
2022/01/18 05:22:56;;;;;;;54.55;7.55;;;;;;;3.75;51.13;102689.03;5116487;28;20123;-68
2022/01/18 05:24:23;;;;;;;49.60;6.22;;;;;;;3.81;51.30;102693.22;5111113;28;20074;-69
2022/01/18 05:26:51;;;;;;;47.85;6.15;;;;;;;3.60;51.90;102700.34;5114145;28;20067;-68
2022/01/18 05:29:18;;;;;;;57.63;8.40;;;;;;;3.73;51.31;102711.31;5114568;28;20488;-68
2022/01/18 05:31:44;;;;;;;38.10;5.95;;;;;;;3.74;51.39;102700.59;5115209;28;20071;-68
2022/01/18 05:34:12;;;;;;;52.42;6.13;;;;;;;3.79;51.41;102701.28;5116398;28;20044;-68
2022/01/18 05:36:39;;;;;;;51.95;6.00;;;;;;;3.67;51.32;102695.63;5113869;28;20115;-69
2022/01/18 05:39:09;;;;;;;45.50;5.55;;;;;;;3.69;51.38;102699.06;5113761;28;20131;-68
2022/01/18 05:41:37;;;;;;;41.70;6.45;;;;;;;3.65;51.40;102708.97;5117182;28;20058;-68
2022/01/18 05:44:04;;;;;;;49.17;6.10;;;;;;;3.72;51.23;102713.06;5116763;28;20100;-68
2022/01/18 05:46:31;;;;;;;56.00;6.80;;;;;;;3.73;50.93;102709.50;5116734;28;20039;-68
2022/01/18 05:49:00;;;;;;;50.40;6.88;;;;;;;3.69;51.07;102707.03;5118086;28;20044;-68
2022/01/18 05:51:28;;;;;;;51.85;5.85;;;;;;;3.63;51.49;102705.53;5117251;28;20045;-69
2022/01/18 05:53:55;;;;;;;54.25;6.78;;;;;;;3.64;51.38;102707.25;5116462;28;20492;-69
2022/01/18 05:56:27;;;;;;;47.03;5.90;;;;;;;3.63;51.44;102708.19;5116642;28;20043;-69
2022/01/18 05:58:56;;;;;;;31.67;5.78;;;;;;;3.60;51.60;102718.91;5113968;28;20051;-69
2022/01/18 06:01:27;;;;;;;48.88;5.90;;;;;;;3.58;51.31;102731.38;5114814;28;20107;-69
2022/01/18 06:09:13;;;;;;;56.90;5.05;;;;;;;3.51;51.18;102720.16;5097086;28;20203;-69
2022/01/18 06:11:42;;;;;;;49.00;5.93;;;;;;;3.46;51.38;102722.16;5114490;28;20473;-69
2022/01/18 06:14:09;;;;;;;43.83;6.35;;;;;;;3.51;51.54;102728.13;5113563;28;20126;-69
2022/01/18 06:16:36;;;;;;;56.05;6.43;;;;;;;3.49;51.60;102722.03;5111700;28;20071;-69
2022/01/18 06:19:02;;;;;;;55.95;6.70;;;;;;;3.61;51.63;102734.75;5113009;28;20063;-68
2022/01/18 06:21:29;;;;;;;43.80;6.35;;;;;;;3.67;51.39;102738.09;5113557;28;20124;-68
2022/01/18 06:23:56;;;;;;;59.28;7.28;;;;;;;3.75;51.38;102736.81;5113134;28;20475;-69
2022/01/18 06:26:22;;;;;;;46.03;5.78;;;;;;;3.71;51.02;102732.59;5113666;27;20131;-69
2022/01/18 06:28:49;;;;;;;58.65;6.00;;;;;;;3.88;50.56;102734.50;5108903;28;20566;-68
2022/01/18 06:31:17;;;;;;;51.15;6.82;;;;;;;3.85;50.67;102734.63;5114148;28;20073;-69
2022/01/18 06:33:44;;;;;;;48.50;5.95;;;;;;;3.87;50.88;102730.13;5113655;28;20051;-69
2022/01/18 06:36:11;;;;;;;53.30;6.18;;;;;;;3.76;51.39;102735.03;5113447;28;20081;-68
2022/01/18 06:38:38;;;;;;;46.05;5.97;;;;;;;3.87;50.89;102735.44;5113135;28;20067;-68
2022/01/18 06:41:04;;;;;;;52.78;6.28;;;;;;;3.76;51.20;102738.56;5114489;28;20127;-68
2022/01/18 06:43:31;;;;;;;47.67;6.78;;;;;;;3.53;52.14;102752.81;5115017;28;20077;-68
2022/01/18 06:45:58;;;;;;;46.38;6.45;;;;;;;3.68;51.62;102753.94;5112947;28;20082;-68
2022/01/18 06:48:25;;;;;;;42.53;5.75;;;;;;;3.79;51.45;102758.78;5114621;28;20072;-68
2022/01/18 06:50:51;;;;;;;60.35;5.78;;;;;;;3.50;51.94;102757.41;5113862;28;20127;-68
2022/01/18 06:53:18;;;;;;;37.20;5.45;;;;;;;3.71;51.72;102753.81;5115028;28;20040;-68
2022/01/18 06:55:51;;;;;;;50.38;6.80;;;;;;;3.92;51.50;102760.00;5099071;28;20246;-68
2022/01/18 06:58:17;;;;;;;34.20;5.55;;;;;;;3.85;51.29;102758.53;5116779;28;20070;-68
2022/01/18 07:00:45;;;;;;;50.70;6.22;;;;;;;3.86;51.34;102762.91;5116276;28;20164;-68
2022/01/18 07:03:12;;;;;;;44.08;6.40;;;;;;;3.98;51.24;102754.41;5119688;28;20104;-68
2022/01/18 07:05:39;;;;;;;46.95;7.60;;;;;;;4.14;50.53;102769.66;5114367;28;20407;-68
2022/01/18 07:08:06;;;;;;;47.17;6.53;;;;;;;4.10;50.63;102774.25;5113144;28;20072;-68
2022/01/18 07:10:32;;;;;;;34.50;5.30;;;;;;;4.14;50.94;102780.28;5112789;28;20043;-68
2022/01/18 07:13:00;;;;;;;36.47;5.90;;;;;;;4.12;50.82;102795.47;5112295;28;20115;-68
2022/01/18 07:15:27;;;;;;;41.35;5.93;;;;;;;4.24;50.39;102790.47;5092709;28;20048;-68
2022/01/18 07:17:54;;;;;;;34.70;5.78;;;;;;;4.17;50.64;102791.66;5092268;28;20215;-68
2022/01/18 07:20:20;;;;;;;40.95;6.60;;;;;;;4.28;50.77;102789.41;5093128;28;20476;-68
2022/01/18 07:22:48;;;;;;;59.90;7.47;;;;;;;4.27;50.74;102789.44;5103400;28;20476;-68
2022/01/18 07:25:17;;;;;;;41.45;7.63;;;;;;;4.10;51.23;102795.50;5113695;28;20352;-69
2022/01/18 07:27:43;;;;;;;51.00;8.63;;;;;;;4.39;50.78;102804.03;5113016;28;20491;-69
2022/01/18 07:30:10;;;;;;;55.28;11.57;;;;;;;4.38;50.41;102805.81;5112708;28;20043;-68
2022/01/18 07:32:37;;;;;;;53.72;11.70;;;;;;;4.55;50.18;102813.00;5094357;28;20047;-67
2022/01/18 07:35:04;;;;;;;51.25;7.30;;;;;;;4.61;50.01;102807.44;5115404;28;20122;-68
2022/01/18 07:37:30;;;;;;;39.35;6.32;;;;;;;4.55;50.62;102810.34;5113028;28;20138;-68
2022/01/18 07:39:56;;;;;;;41.10;6.03;;;;;;;4.57;50.44;102808.50;5113902;28;20099;-69
2022/01/18 07:42:23;;;;;;;40.95;6.43;;;;;;;4.67;49.87;102825.75;5113267;28;20094;-67
2022/01/18 07:44:50;;;;;;;33.30;5.75;;;;;;;4.73;49.74;102825.50;5113424;28;20134;-68
2022/01/18 07:47:17;;;;;;;46.15;6.55;;;;;;;4.75;49.72;102826.25;5112500;28;20139;-69
2022/01/18 07:49:45;;;;;;;41.72;5.45;;;;;;;4.85;49.76;102834.69;5113904;28;20060;-68
2022/01/18 07:52:11;;;;;;;37.70;6.00;;;;;;;4.75;50.06;102833.38;5113764;28;20052;-69
2022/01/18 07:54:38;;;;;;;33.65;4.55;;;;;;;4.86;49.88;102828.41;5112471;28;20050;-68
2022/01/18 07:57:12;;;;;;;36.20;5.72;;;;;;;4.92;49.47;102827.28;5112054;28;20483;-67
2022/01/18 07:59:38;;;;;;;32.15;5.65;;;;;;;4.99;49.51;102837.56;5114345;28;20078;-69
2022/01/18 08:02:04;;;;;;;40.88;5.20;;;;;;;4.99;49.46;102852.66;5114989;28;20135;-68
2022/01/18 08:04:31;;;;;;;34.90;5.43;;;;;;;4.78;50.29;102849.19;5114743;28;20044;-71
2022/01/18 08:06:58;;;;;;;46.67;9.60;;;;;;;5.04;49.71;102859.50;5106374;28;20075;-69
2022/01/18 08:09:24;;;;;;;41.20;9.85;;;;;;;5.05;49.66;102858.56;5113627;28;20130;-70
2022/01/18 08:11:52;;;;;;;44.35;7.72;;;;;;;5.07;49.68;102868.25;5112832;28;20408;-69
2022/01/18 08:14:19;;;;;;;43.42;9.50;;;;;;;5.18;49.32;102871.28;5115353;28;20050;-68
2022/01/18 08:19:14;;;;;;;26.98;7.70;;;;;;;5.23;49.23;102864.81;5116226;28;20067;-70
2022/01/18 08:21:40;;;;;;;44.70;8.05;;;;;;;5.31;48.99;102866.25;5098020;28;20138;-69
2022/01/18 08:24:11;;;;;;;46.63;6.90;;;;;;;5.50;48.64;102867.09;5117757;28;20541;-69
2022/01/18 08:26:37;;;;;;;57.33;11.15;;;;;;;5.42;48.85;102869.25;5117223;28;20074;-69
2022/01/18 08:29:04;;;;;;;39.38;7.00;;;;;;;5.41;49.30;102864.84;5115819;28;20051;-71
2022/01/18 08:31:30;;;;;;;42.63;7.82;;;;;;;5.46;48.75;102866.38;5115852;28;20127;-72
2022/01/18 08:33:57;;;;;;;40.13;7.22;;;;;;;5.56;48.86;102873.91;5114495;28;20044;-72
2022/01/18 08:36:24;;;;;;;30.50;5.50;;;;;;;5.54;48.77;102873.97;5115573;28;20136;-72
2022/01/18 08:38:50;;;;;;;48.35;6.57;;;;;;;5.65;48.42;102876.97;5114299;28;20468;-72
2022/01/18 08:41:17;;;;;;;38.38;6.18;;;;;;;5.72;48.44;102865.09;5117082;28;20055;-70
2022/01/18 08:43:43;;;;;;;37.58;5.55;;;;;;;5.75;48.51;102875.59;5116032;28;20485;-72
2022/01/18 08:46:10;;;;;;;35.08;6.15;;;;;;;5.76;48.51;102877.31;5116613;28;20069;-71
2022/01/18 08:48:37;;;;;;;42.17;6.85;;;;;;;5.74;48.45;102876.53;5117732;28;20048;-70
2022/01/18 08:51:04;;;;;;;45.10;6.68;;;;;;;5.68;48.77;102881.28;5115871;28;20059;-71
2022/01/18 08:53:30;;;;;;;43.10;8.85;;;;;;;5.85;48.62;102877.81;5115427;28;20459;-70
2022/01/18 08:55:57;;;;;;;55.90;9.77;;;;;;;5.86;48.61;102874.19;5114764;28;20407;-71
2022/01/18 08:58:23;;;;;;;44.22;7.65;;;;;;;5.98;48.40;102873.59;5115726;28;20043;-71
2022/01/18 09:00:50;;;;;;;50.58;6.63;;;;;;;6.00;48.26;102877.03;5113553;28;20487;-72
2022/01/18 09:03:17;;;;;;;38.67;6.30;;;;;;;6.12;48.20;102884.41;5114826;28;20073;-72
2022/01/18 09:05:45;;;;;;;36.13;5.30;;;;;;;5.97;48.17;102887.81;5097811;28;20107;-71
2022/01/18 09:08:13;;;;;;;41.58;7.32;;;;;;;6.14;47.75;102890.50;5115389;28;20126;-72
2022/01/18 09:10:41;;;;;;;37.67;5.75;;;;;;;6.04;48.28;102893.72;5115653;28;20044;-69
2022/01/18 09:13:07;;;;;;;31.45;6.55;;;;;;;6.14;48.13;102889.63;5115774;28;20067;-69
2022/01/18 09:15:34;;;;;;;41.47;7.30;;;;;;;6.11;48.14;102895.13;5115410;28;20063;-69
2022/01/18 09:18:00;;;;;;;49.08;7.05;;;;;;;6.18;47.79;102892.09;5117227;28;20479;-69
2022/01/18 09:20:27;;;;;;;36.80;6.45;;;;;;;6.16;48.00;102911.75;5115405;28;20399;-70
2022/01/18 09:22:54;;;;;;;27.55;5.38;;;;;;;6.13;48.16;102910.09;5115191;28;20127;-70
2022/01/18 09:25:23;;;;;;;35.47;6.28;;;;;;;6.18;47.80;102916.09;5115268;28;20086;-69
2022/01/18 09:27:50;;;;;;;30.88;5.65;;;;;;;6.07;48.28;102914.88;5116672;28;20078;-71
2022/01/18 09:30:17;;;;;;;48.13;7.05;;;;;;;6.07;48.24;102910.41;5115808;28;20051;-70
2022/01/18 09:32:44;;;;;;;43.38;5.28;;;;;;;6.32;48.00;102914.53;5114853;28;20101;-70
2022/01/18 09:35:13;;;;;;;36.92;4.65;;;;;;;6.39;47.35;102908.81;5115554;28;20116;-69
2022/01/18 09:37:40;;;;;;;39.03;7.57;;;;;;;6.65;46.82;102907.44;5115403;28;20073;-69
2022/01/18 09:40:08;;;;;;;30.05;5.25;;;;;;;6.83;46.58;102915.41;5115529;28;20558;-69
2022/01/18 09:42:35;;;;;;;29.38;5.28;;;;;;;6.71;46.52;102917.78;5114300;28;20122;-69
2022/01/18 09:45:05;;;;;;;33.78;6.88;;;;;;;6.76;46.58;102904.19;5113370;28;20134;-69
2022/01/18 09:47:32;;;;;;;37.30;5.63;;;;;;;6.38;47.58;102904.41;5112425;28;20422;-69
2022/01/18 09:49:58;;;;;;;24.73;5.38;;;;;;;6.83;46.60;102907.41;5113151;28;20069;-70
2022/01/18 09:52:25;;;;;;;33.20;5.93;;;;;;;6.51;47.01;102912.63;5095430;28;20559;-69
2022/01/18 09:54:52;;;;;;;28.77;6.82;;;;;;;6.47;47.35;102914.59;5114415;28;20074;-69
2022/01/18 09:57:19;;;;;;;35.65;6.15;;;;;;;6.89;46.33;102905.28;5113199;28;20044;-69
2022/01/18 09:59:45;;;;;;;32.92;5.70;;;;;;;7.00;46.24;102904.69;5106820;28;20469;-69
2022/01/18 10:02:12;;;;;;;33.13;5.55;;;;;;;7.31;45.37;102911.88;5112625;28;20044;-70
2022/01/18 10:04:41;;;;;;;39.78;6.43;;;;;;;7.31;45.21;102919.03;5113375;28;20047;-70
2022/01/18 10:07:08;;;;;;;22.95;5.55;;;;;;;7.47;44.99;102922.56;5115154;28;20043;-70
2022/01/18 10:09:35;;;;;;;30.45;6.22;;;;;;;7.50;44.85;102914.38;5112952;28;20103;-70
2022/01/18 10:12:08;;;;;;;41.42;7.28;;;;;;;7.43;45.06;102921.88;5114570;28;20139;-70
2022/01/18 10:14:38;;;;;;;37.85;6.25;;;;;;;7.21;45.63;102921.34;5113759;28;20071;-69
2022/01/18 10:17:05;;;;;;;26.88;5.57;;;;;;;7.50;44.88;102925.06;5113035;28;20059;-70
2022/01/18 10:19:41;;;;;;;29.35;4.97;;;;;;;7.48;44.96;102929.63;5113339;28;20147;-70
2022/01/18 10:22:14;;;;;;;45.45;6.78;;;;;;;7.53;44.86;102922.19;5111751;28;20062;-69
2022/01/18 10:24:42;;;;;;;33.08;5.75;;;;;;;7.62;44.74;102913.69;5113142;28;20488;-70
2022/01/18 10:27:10;;;;;;;31.10;6.35;;;;;;;7.58;44.87;102919.28;5112515;28;20067;-69
2022/01/18 10:29:42;;;;;;;35.40;8.20;;;;;;;7.08;45.71;102915.78;5113111;28;20131;-70
2022/01/18 10:32:13;;;;;;;37.85;8.65;;;;;;;7.50;45.13;102917.06;5113684;28;20098;-69
2022/01/18 10:35:04;;;;;;;26.63;6.25;;;;;;;7.64;44.46;102916.28;5113473;28;20371;-69
2022/01/18 10:37:34;;;;;;;34.50;5.20;;;;;;;8.06;43.33;102920.97;5111285;28;20122;-69
2022/01/18 10:40:06;;;;;;;35.88;5.43;;;;;;;7.88;43.65;102919.34;5113039;28;20050;-69
2022/01/18 10:42:43;;;;;;;23.70;4.68;;;;;;;8.26;42.91;102925.16;5103742;28;20282;-69
2022/01/18 10:45:15;;;;;;;29.23;5.95;;;;;;;8.40;42.81;102913.63;5113712;28;20119;-68
2022/01/18 10:47:52;;;;;;;38.30;4.55;;;;;;;8.45;42.97;102916.88;5113603;28;20119;-68
2022/01/18 10:50:20;;;;;;;34.85;4.97;;;;;;;8.66;42.42;102908.50;5112890;28;20513;-69
2022/01/18 10:52:46;;;;;;;24.67;4.43;;;;;;;9.14;41.44;102909.06;5113181;28;20403;-75
2022/01/18 10:55:18;;;;;;;33.47;4.75;;;;;;;9.30;41.14;102916.06;5110501;28;20126;-70
2022/01/18 10:57:46;;;;;;;23.48;4.00;;;;;;;9.51;40.52;102913.81;5113286;28;20468;-69
2022/01/18 11:00:17;;;;;;;22.40;3.97;;;;;;;9.49;40.02;102913.06;5113142;28;20043;-69
2022/01/18 11:02:50;;;;;;;29.98;4.47;;;;;;;8.62;41.44;102907.81;5113155;28;20054;-69
2022/01/18 11:05:18;;;;;;;26.13;4.32;;;;;;;8.65;41.67;102913.00;5111669;28;20491;-69
2022/01/18 11:07:46;;;;;;;25.38;4.00;;;;;;;8.67;41.70;102912.88;5113553;28;20086;-70
2022/01/18 11:10:15;;;;;;;34.75;4.75;;;;;;;8.24;42.79;102919.03;5112456;28;20054;-70
2022/01/18 11:12:53;;;;;;;16.65;3.53;;;;;;;8.22;42.91;102909.38;5113205;28;20071;-70
2022/01/18 11:15:22;;;;;;;21.73;4.22;;;;;;;8.10;43.18;102906.47;5111649;28;20120;-70
2022/01/18 11:17:52;;;;;;;27.17;4.38;;;;;;;8.17;42.78;102909.66;5112238;28;20458;-70
2022/01/18 11:20:20;;;;;;;35.42;4.55;;;;;;;8.53;42.48;102905.69;5114245;28;20050;-70
2022/01/18 11:22:51;;;;;;;29.00;4.38;;;;;;;8.40;42.33;102902.03;5112868;28;20499;-71
2022/01/18 11:25:18;;;;;;;15.13;2.55;;;;;;;8.46;42.60;102909.72;5111786;28;20096;-71
2022/01/18 11:27:49;;;;;;;26.23;4.30;;;;;;;8.12;43.24;102904.59;5111312;28;20057;-71
2022/01/18 11:30:20;;;;;;;15.33;2.77;;;;;;;8.65;42.13;102913.00;5112221;28;20126;-70
2022/01/18 11:32:49;;;;;;;30.77;4.13;;;;;;;8.66;42.11;102908.50;5093664;28;20547;-70
2022/01/18 11:35:30;;;;;;;21.00;3.10;;;;;;;8.60;42.33;102909.72;5093674;28;20099;-70
2022/01/18 11:38:07;;;;;;;25.33;4.17;;;;;;;8.54;42.30;102904.78;5093845;28;20048;-70
2022/01/18 11:40:52;;;;;;;17.13;3.28;;;;;;;8.34;42.91;102914.00;5094464;28;20078;-70
2022/01/18 11:43:40;;;;;;;24.15;3.13;;;;;;;7.31;44.22;102906.53;5094488;28;20126;-70
2022/01/18 11:46:21;;;;;;;16.42;2.92;;;;;;;8.14;42.30;102924.06;5078027;28;20046;-71
2022/01/18 11:48:56;;;;;;;19.95;2.75;;;;;;;8.14;41.81;102909.81;5098936;28;20044;-70
2022/01/18 11:51:45;;;;;;;21.35;3.45;;;;;;;8.39;41.37;102917.25;5099692;28;20044;-70
2022/01/18 11:57:00;;;;;;;18.50;3.00;;;;;;;8.44;41.26;102925.88;5099244;28;20430;-70
2022/01/18 11:59:35;;;;;;;18.67;3.40;;;;;;;8.13;42.14;102926.81;5098179;28;20064;-70
2022/01/18 12:02:03;;;;;;;13.60;3.80;;;;;;;8.00;42.57;102931.16;5098654;28;20067;-70
2022/01/18 12:07:29;;;;;;;17.50;2.63;;;;;;;8.17;41.98;102928.38;5097432;28;20067;-70
2022/01/18 12:09:56;;;;;;;19.05;2.75;;;;;;;8.30;42.05;102928.50;5081415;28;20127;-70
2022/01/18 12:12:45;;;;;;;16.73;3.20;;;;;;;8.17;42.43;102923.00;5098525;28;20040;-70
2022/01/18 12:15:23;;;;;;;12.05;2.72;;;;;;;8.52;41.50;102928.06;5097525;28;20119;-71
2022/01/18 12:17:55;;;;;;;19.40;3.33;;;;;;;8.55;41.63;102919.88;5098804;28;20048;-70
2022/01/18 12:20:43;;;;;;;21.23;2.67;;;;;;;8.15;42.25;102924.91;5098000;28;20151;-71
2022/01/18 12:23:21;;;;;;;10.85;2.20;;;;;;;8.41;41.96;102915.34;5097253;28;20464;-70
2022/01/18 12:34:30;;;;;;;19.92;3.03;;;;;;;8.57;41.79;102909.91;5118637;28;20070;-70
2022/01/18 12:37:30;;;;;;;20.17;2.45;;;;;;;8.76;41.50;102909.66;5117759;28;20092;-70
2022/01/18 12:40:08;;;;;;;17.10;3.03;;;;;;;8.76;41.53;102909.66;5117026;28;20131;-70
2022/01/18 12:45:15;;;;;;;19.20;3.13;;;;;;;8.21;42.74;102891.59;5115204;28;20035;-70
2022/01/18 12:47:46;;;;;;;17.33;3.35;;;;;;;8.16;43.13;102902.59;5118889;28;20040;-71
2022/01/18 12:50:13;;;;;;;;;;;;;;;7.48;45.15;102894.06;5118838;28;20130;-70
2022/01/18 12:52:54;;;;;;;17.67;3.78;;;;;;;8.28;43.29;102899.16;5117390;28;19927;-70
2022/01/18 12:55:43;;;;;;;20.55;3.38;;;;;;;8.19;43.54;102901.53;5118051;28;20085;-69
2022/01/18 12:58:32;;;;;;;17.38;3.08;;;;;;;8.49;42.95;102891.66;5116892;28;20070;-70
2022/01/18 13:01:07;;;;;;;15.23;2.60;;;;;;;8.58;42.77;102901.81;5116329;28;20047;-70
2022/01/18 13:03:36;;;;;;;22.23;3.85;;;;;;;8.70;42.52;102894.81;5117892;28;20048;-69
2022/01/18 13:06:06;;;;;;;11.38;2.60;;;;;;;8.49;42.76;102894.34;5117571;28;20050;-69